Terminal Aerodrome Forecast
Issued by NWS

Home | Current Version | Previous Version | Text Only | Print | Product List | Glossary On
Versions: 1 2 3 4 5 6 7 8 9 10 11 12
587
FTUS43 KMQT 231721
TAFCMX
TAF
KCMX 231721Z 2318/2418 27008KT P6SM SKC
     FM240000 25006KT P6SM FEW180
     FM241000 33005KT P6SM BKN070=

USA.gov is the U.S. government's official web portal to all federal, state and local government web resources and services.